EFKE/KEM METAR and TAF weather

Enter ICAO airport designator
Station Type Date Time Source
EFKE METAR 2022/12/08 13:50 UTC NOAA

EFKE 081350Z AUTO 04007KT 9999 -SN FEW030 M05/M06 Q1008


Station Type Date Time Source
EFKE Decoded METAR 2022/12/08 13:50 UTC NOAA

Kemi, Finland (EFKE) 65-47N 024-35E
Dec 08, 2022 - 08:50 AM EST / 2022.12.08 1350 UTC
Wind: from the NE (040 degrees) at 8 MPH (7 KT):0
Visibility: greater than 7 mile(s):0
Sky conditions: mostly clear
Weather: light snow
Temperature: 23 F (-5 C)
Windchill: 14 F (-10 C):1
Dew Point: 21 F (-6 C)
Relative Humidity: 92%
Pressure (altimeter): 29.77 in. Hg (1008 hPa)
ob: EFKE 081350Z AUTO 04007KT 9999 -SN FEW030 M05/M06 Q1008
cycle: 14

Station Type Date Time Source
EFKE TAF 2015/01/12 15:42 UTC NOAA

TAF EFKE 121433Z 1215/1312 03006KT CAVOK
BECMG 1300/1302 9999 BKN015
FM130400 07008KT 9999 SCT014 BKN018
TEMPO 1304/1312 7000 -SN

Example: see airport list